sensor_id;sensor_type;location;lat;lon;timestamp;pressure;altitude;pressure_sealevel;temperature;humidity
2841;BME280;53423;49.224;12.074;2023-04-01T00:00:51;96362.16;;;9.16;70.17
2841;BME280;53423;49.224;12.074;2023-04-01T00:03:20;96366.91;;;9.06;70.59
2841;BME280;53423;49.224;12.074;2023-04-01T00:05:49;96369.91;;;9.03;70.33
2841;BME280;53423;49.224;12.074;2023-04-01T00:08:17;96359.81;;;9.00;70.88
2841;BME280;53423;49.224;12.074;2023-04-01T00:10:45;96358.94;;;9.14;69.94
2841;BME280;53423;49.224;12.074;2023-04-01T00:13:14;96360.44;;;9.23;69.44
2841;BME280;53423;49.224;12.074;2023-04-01T00:15:43;96364.44;;;8.98;69.84
2841;BME280;53423;49.224;12.074;2023-04-01T00:18:11;96353.66;;;9.08;70.19
2841;BME280;53423;49.224;12.074;2023-04-01T00:20:43;96370.47;;;8.99;70.62
2841;BME280;53423;49.224;12.074;2023-04-01T00:23:12;96362.81;;;9.18;70.55
2841;BME280;53423;49.224;12.074;2023-04-01T00:25:40;96361.31;;;9.09;70.20
2841;BME280;53423;49.224;12.074;2023-04-01T00:28:08;96358.94;;;9.14;70.26
2841;BME280;53423;49.224;12.074;2023-04-01T00:30:38;96362.50;;;9.07;69.99
2841;BME280;53423;49.224;12.074;2023-04-01T00:33:06;96357.72;;;9.10;70.07
2841;BME280;53423;49.224;12.074;2023-04-01T00:35:34;96366.66;;;9.01;70.06
2841;BME280;53423;49.224;12.074;2023-04-01T00:38:02;96354.56;;;9.21;69.74
2841;BME280;53423;49.224;12.074;2023-04-01T00:40:32;96357.13;;;9.15;70.12
2841;BME280;53423;49.224;12.074;2023-04-01T00:43:01;96350.31;;;9.14;69.86
2841;BME280;53423;49.224;12.074;2023-04-01T00:45:33;96358.19;;;8.99;70.26
2841;BME280;53423;49.224;12.074;2023-04-01T00:48:06;96348.63;;;9.06;70.03
2841;BME280;53423;49.224;12.074;2023-04-01T00:50:37;96351.59;;;9.03;70.22
2841;BME280;53423;49.224;12.074;2023-04-01T00:53:07;96344.63;;;9.10;70.27
2841;BME280;53423;49.224;12.074;2023-04-01T00:55:39;96339.91;;;8.99;70.06
2841;BME280;53423;49.224;12.074;2023-04-01T00:58:13;96346.56;;;9.02;70.74
2841;BME280;53423;49.224;12.074;2023-04-01T01:00:42;96337.34;;;9.06;70.43
2841;BME280;53423;49.224;12.074;2023-04-01T01:03:12;96336.59;;;8.91;70.49
2841;BME280;53423;49.224;12.074;2023-04-01T01:05:54;96353.16;;;8.98;69.86
2841;BME280;53423;49.224;12.074;2023-04-01T01:08:33;96356.84;;;9.03;69.98
2841;BME280;53423;49.224;12.074;2023-04-01T01:11:07;96349.38;;;9.00;69.87
2841;BME280;53423;49.224;12.074;2023-04-01T01:13:41;96343.47;;;8.92;70.02
2841;BME280;53423;49.224;12.074;2023-04-01T01:16:16;96351.59;;;9.03;69.88
2841;BME280;53423;49.224;12.074;2023-04-01T01:18:53;96348.38;;;9.01;70.04
2841;BME280;53423;49.224;12.074;2023-04-01T01:21:38;96350.34;;;8.99;69.54
2841;BME280;53423;49.224;12.074;2023-04-01T01:24:39;96351.50;;;8.90;69.71
2841;BME280;53423;49.224;12.074;2023-04-01T01:27:11;96352.84;;;8.86;70.46
2841;BME280;53423;49.224;12.074;2023-04-01T01:30:05;96348.22;;;9.09;69.71
2841;BME280;53423;49.224;12.074;2023-04-01T01:32:52;96335.59;;;9.13;69.29
2841;BME280;53423;49.224;12.074;2023-04-01T01:35:26;96339.84;;;9.14;69.17
2841;BME280;53423;49.224;12.074;2023-04-01T01:37:58;96332.34;;;9.11;68.91
2841;BME280;53423;49.224;12.074;2023-04-01T01:40:29;96333.63;;;9.15;68.87
2841;BME280;53423;49.224;12.074;2023-04-01T01:43:00;96334.88;;;9.19;68.28
2841;BME280;53423;49.224;12.074;2023-04-01T01:45:33;96336.66;;;9.18;68.76
2841;BME280;53423;49.224;12.074;2023-04-01T01:48:04;96336.03;;;9.37;68.41
2841;BME280;53423;49.224;12.074;2023-04-01T01:50:35;96340.53;;;9.22;68.21
2841;BME280;53423;49.224;12.074;2023-04-01T01:53:05;96335.78;;;9.11;68.75
2841;BME280;53423;49.224;12.074;2023-04-01T01:55:35;96338.69;;;9.23;67.92
2841;BME280;53423;49.224;12.074;2023-04-01T01:58:09;96343.19;;;9.08;69.05
2841;BME280;53423;49.224;12.074;2023-04-01T02:00:39;96336.41;;;9.13;68.41
2841;BME280;53423;49.224;12.074;2023-04-01T02:03:09;96336.38;;;9.07;67.91
2841;BME280;53423;49.224;12.074;2023-04-01T02:05:40;96341.41;;;9.08;68.66
2841;BME280;53423;49.224;12.074;2023-04-01T02:08:10;96341.03;;;9.11;68.46
2841;BME280;53423;49.224;12.074;2023-04-01T02:10:42;96327.72;;;9.06;68.16
2841;BME280;53423;49.224;12.074;2023-04-01T02:13:17;96333.56;;;9.08;68.58
2841;BME280;53423;49.224;12.074;2023-04-01T02:15:49;96335.13;;;9.03;68.58
2841;BME280;53423;49.224;12.074;2023-04-01T02:18:19;96325.84;;;9.00;68.76
2841;BME280;53423;49.224;12.074;2023-04-01T02:20:49;96319.44;;;9.03;68.98
2841;BME280;53423;49.224;12.074;2023-04-01T02:23:18;96326.34;;;8.89;68.76
2841;BME280;53423;49.224;12.074;2023-04-01T02:25:47;96327.41;;;8.95;68.57
2841;BME280;53423;49.224;12.074;2023-04-01T02:28:15;96334.88;;;8.98;68.66
2841;BME280;53423;49.224;12.074;2023-04-01T02:30:48;96336.59;;;8.91;68.67
2841;BME280;53423;49.224;12.074;2023-04-01T02:33:19;96337.34;;;9.06;68.57
2841;BME280;53423;49.224;12.074;2023-04-01T02:35:49;96336.66;;;9.18;67.91
2841;BME280;53423;49.224;12.074;2023-04-01T02:38:17;96338.25;;;9.19;68.11
2841;BME280;53423;49.224;12.074;2023-04-01T02:40:47;96342.50;;;9.20;67.71
2841;BME280;53423;49.224;12.074;2023-04-01T02:43:16;96337.53;;;9.04;68.06
2841;BME280;53423;49.224;12.074;2023-04-01T02:45:45;96348.50;;;8.93;68.78
2841;BME280;53423;49.224;12.074;2023-04-01T02:48:13;96349.13;;;8.95;68.44
2841;BME280;53423;49.224;12.074;2023-04-01T02:50:41;96349.84;;;8.89;68.95
2841;BME280;53423;49.224;12.074;2023-04-01T02:53:10;96350.38;;;8.78;69.33
2841;BME280;53423;49.224;12.074;2023-04-01T02:55:38;96351.94;;;8.94;69.05
2841;BME280;53423;49.224;12.074;2023-04-01T02:58:06;96353.22;;;9.04;68.34
2841;BME280;53423;49.224;12.074;2023-04-01T03:00:34;96359.13;;;9.13;67.93
2841;BME280;53423;49.224;12.074;2023-04-01T03:03:03;96360.19;;;8.97;68.45
2841;BME280;53423;49.224;12.074;2023-04-01T03:05:31;96362.66;;;8.84;68.83
2841;BME280;53423;49.224;12.074;2023-04-01T03:07:59;96365.34;;;8.91;68.72
2841;BME280;53423;49.224;12.074;2023-04-01T03:10:29;96358.75;;;8.95;68.38
2841;BME280;53423;49.224;12.074;2023-04-01T03:12:57;96362.88;;;9.04;67.94
2841;BME280;53423;49.224;12.074;2023-04-01T03:15:25;96361.88;;;9.05;68.05
2841;BME280;53423;49.224;12.074;2023-04-01T03:17:52;96358.19;;;9.20;67.62
2841;BME280;53423;49.224;12.074;2023-04-01T03:20:20;96365.56;;;9.10;67.60
2841;BME280;53423;49.224;12.074;2023-04-01T03:22:48;96365.31;;;9.05;67.71
2841;BME280;53423;49.224;12.074;2023-04-01T03:25:18;96376.44;;;9.14;67.31
2841;BME280;53423;49.224;12.074;2023-04-01T03:27:47;96373.69;;;9.22;67.39
2841;BME280;53423;49.224;12.074;2023-04-01T03:30:15;96372.50;;;9.24;67.82
2841;BME280;53423;49.224;12.074;2023-04-01T03:32:43;96376.72;;;9.04;68.14
2841;BME280;53423;49.224;12.074;2023-04-01T03:35:11;96373.81;;;8.93;68.20
2841;BME280;53423;49.224;12.074;2023-04-01T03:37:40;96371.75;;;9.09;67.82
2841;BME280;53423;49.224;12.074;2023-04-01T03:40:09;96373.25;;;8.97;68.78
2841;BME280;53423;49.224;12.074;2023-04-01T03:42:37;96376.03;;;8.96;68.16
2841;BME280;53423;49.224;12.074;2023-04-01T03:45:07;96381.53;;;9.01;67.88
2841;BME280;53423;49.224;12.074;2023-04-01T03:47:36;96384.50;;;8.98;68.27
2841;BME280;53423;49.224;12.074;2023-04-01T03:50:06;96383.22;;;9.08;68.04
2841;BME280;53423;49.224;12.074;2023-04-01T03:52:34;96385.06;;;9.14;68.02
2841;BME280;53423;49.224;12.074;2023-04-01T03:55:03;96387.69;;;9.35;67.50
2841;BME280;53423;49.224;12.074;2023-04-01T03:57:31;96387.44;;;9.30;67.39
2841;BME280;53423;49.224;12.074;2023-04-01T03:59:59;96390.78;;;9.24;67.62
2841;BME280;53423;49.224;12.074;2023-04-01T04:02:28;96389.31;;;9.15;67.72
2841;BME280;53423;49.224;12.074;2023-04-01T04:04:56;96389.75;;;8.98;68.25
2841;BME280;53423;49.224;12.074;2023-04-01T04:07:24;96390.38;;;9.00;67.69
2841;BME280;53423;49.224;12.074;2023-04-01T04:09:52;96386.22;;;9.05;68.38
2841;BME280;53423;49.224;12.074;2023-04-01T04:12:20;96386.03;;;9.07;68.13
2841;BME280;53423;49.224;12.074;2023-04-01T04:14:48;96395.84;;;9.05;68.15
2841;BME280;53423;49.224;12.074;2023-04-01T04:17:16;96392.41;;;9.04;68.34
2841;BME280;53423;49.224;12.074;2023-04-01T04:19:45;96388.25;;;8.89;68.48
2841;BME280;53423;49.224;12.074;2023-04-01T04:22:13;96386.13;;;8.77;69.16
2841;BME280;53423;49.224;12.074;2023-04-01T04:24:41;96390.50;;;8.92;68.91
2841;BME280;53423;49.224;12.074;2023-04-01T04:27:09;96396.50;;;8.92;68.52
2841;BME280;53423;49.224;12.074;2023-04-01T04:29:37;96394.59;;;9.01;67.76
2841;BME280;53423;49.224;12.074;2023-04-01T04:32:05;96395.84;;;8.84;69.00
2841;BME280;53423;49.224;12.074;2023-04-01T04:34:33;96396.50;;;8.92;68.68
2841;BME280;53423;49.224;12.074;2023-04-01T04:37:02;96390.19;;;8.80;68.61
2841;BME280;53423;49.224;12.074;2023-04-01T04:39:30;96394.91;;;8.91;68.35
2841;BME280;53423;49.224;12.074;2023-04-01T04:41:58;96391.66;;;8.89;68.36
2841;BME280;53423;49.224;12.074;2023-04-01T04:44:26;96391.91;;;8.94;67.95
2841;BME280;53423;49.224;12.074;2023-04-01T04:46:54;96397.28;;;9.07;67.46
2841;BME280;53423;49.224;12.074;2023-04-01T04:49:24;96397.97;;;8.95;68.05
2841;BME280;53423;49.224;12.074;2023-04-01T04:51:52;96397.97;;;8.95;68.25
2841;BME280;53423;49.224;12.074;2023-04-01T04:54:21;96397.50;;;8.91;68.07
2841;BME280;53423;49.224;12.074;2023-04-01T04:56:51;96405.53;;;8.90;67.82
2841;BME280;53423;49.224;12.074;2023-04-01T04:59:19;96398.00;;;8.80;68.17
2841;BME280;53423;49.224;12.074;2023-04-01T05:01:47;96408.59;;;8.93;67.71
2841;BME280;53423;49.224;12.074;2023-04-01T05:04:15;96413.75;;;9.08;67.78
2841;BME280;53423;49.224;12.074;2023-04-01T05:06:43;96420.13;;;8.99;67.22
2841;BME280;53423;49.224;12.074;2023-04-01T05:09:11;96411.84;;;8.80;67.97
2841;BME280;53423;49.224;12.074;2023-04-01T05:11:40;96412.44;;;8.97;67.33
2841;BME280;53423;49.224;12.074;2023-04-01T05:14:12;96422.22;;;8.89;67.45
2841;BME280;53423;49.224;12.074;2023-04-01T05:16:40;96418.34;;;8.85;68.19
2841;BME280;53423;49.224;12.074;2023-04-01T05:19:08;96427.34;;;9.18;67.29
2841;BME280;53423;49.224;12.074;2023-04-01T05:21:36;96429.09;;;9.32;66.54
2841;BME280;53423;49.224;12.074;2023-04-01T05:24:08;96432.44;;;9.26;66.90
2841;BME280;53423;49.224;12.074;2023-04-01T05:26:36;96428.47;;;9.51;66.15
2841;BME280;53423;49.224;12.074;2023-04-01T05:29:06;96426.66;;;9.30;66.16
2841;BME280;53423;49.224;12.074;2023-04-01T05:31:34;96425.94;;;9.43;65.99
2841;BME280;53423;49.224;12.074;2023-04-01T05:34:01;96419.22;;;9.55;65.84
2841;BME280;53423;49.224;12.074;2023-04-01T05:36:29;96428.75;;;9.62;66.86
2841;BME280;53423;49.224;12.074;2023-04-01T05:38:57;96420.13;;;9.68;66.33
2841;BME280;53423;49.224;12.074;2023-04-01T05:41:25;96422.66;;;9.55;66.05
2841;BME280;53423;49.224;12.074;2023-04-01T05:43:53;96434.66;;;9.50;66.17
2841;BME280;53423;49.224;12.074;2023-04-01T05:46:23;96427.84;;;9.49;66.61
2841;BME280;53423;49.224;12.074;2023-04-01T05:48:51;96434.28;;;9.53;65.96
2841;BME280;53423;49.224;12.074;2023-04-01T05:51:19;96428.47;;;9.78;64.84
2841;BME280;53423;49.224;12.074;2023-04-01T05:53:47;96434.81;;;9.69;65.71
2841;BME280;53423;49.224;12.074;2023-04-01T05:56:15;96433.94;;;9.83;65.50
2841;BME280;53423;49.224;12.074;2023-04-01T05:58:42;96435.94;;;9.81;65.60
2841;BME280;53423;49.224;12.074;2023-04-01T06:01:11;96437.91;;;9.79;64.58
2841;BME280;53423;49.224;12.074;2023-04-01T06:03:43;96435.66;;;9.97;65.34
2841;BME280;53423;49.224;12.074;2023-04-01T06:06:14;96441.59;;;9.85;65.86
2841;BME280;53423;49.224;12.074;2023-04-01T06:08:43;96442.06;;;9.67;65.95
2841;BME280;53423;49.224;12.074;2023-04-01T06:11:19;96441.31;;;9.73;66.33
2841;BME280;53423;49.224;12.074;2023-04-01T06:14:00;96439.81;;;9.64;66.60
2841;BME280;53423;49.224;12.074;2023-04-01T06:16:39;96442.75;;;9.76;65.67
2841;BME280;53423;49.224;12.074;2023-04-01T06:19:22;96451.78;;;10.01;65.48
2841;BME280;53423;49.224;12.074;2023-04-01T06:22:06;96441.97;;;9.82;65.75
2841;BME280;53423;49.224;12.074;2023-04-01T06:24:46;96442.13;;;9.74;65.72
2841;BME280;53423;49.224;12.074;2023-04-01T06:27:24;96445.25;;;9.90;66.04
2841;BME280;53423;49.224;12.074;2023-04-01T06:30:04;96450.50;;;9.90;65.33
2841;BME280;53423;49.224;12.074;2023-04-01T06:32:50;96454.34;;;9.67;66.23
2841;BME280;53423;49.224;12.074;2023-04-01T06:35:37;96456.91;;;9.88;65.77
2841;BME280;53423;49.224;12.074;2023-04-01T06:38:18;96451.75;;;9.94;64.44
2841;BME280;53423;49.224;12.074;2023-04-01T06:43:46;96454.72;;;9.91;65.44
2841;BME280;53423;49.224;12.074;2023-04-01T06:46:21;96448.50;;;9.92;65.24
2841;BME280;53423;49.224;12.074;2023-04-01T06:49:06;96441.59;;;10.47;63.73
2841;BME280;53423;49.224;12.074;2023-04-01T06:51:45;96440.75;;;10.80;61.83
2841;BME280;53423;49.224;12.074;2023-04-01T06:54:18;96443.44;;;10.93;62.74
2841;BME280;53423;49.224;12.074;2023-04-01T06:56:52;96437.22;;;11.14;62.38
2841;BME280;53423;49.224;12.074;2023-04-01T06:59:26;96439.25;;;11.12;61.04
2841;BME280;53423;49.224;12.074;2023-04-01T07:01:58;96439.38;;;10.91;62.33
2841;BME280;53423;49.224;12.074;2023-04-01T07:04:30;96439.56;;;10.42;63.66
2841;BME280;53423;49.224;12.074;2023-04-01T07:07:01;96441.03;;;10.51;62.49
2841;BME280;53423;49.224;12.074;2023-04-01T07:09:33;96444.91;;;10.62;63.17
2841;BME280;53423;49.224;12.074;2023-04-01T07:12:09;96447.66;;;10.47;62.21
2841;BME280;53423;49.224;12.074;2023-04-01T07:14:41;96445.09;;;10.60;62.37
2841;BME280;53423;49.224;12.074;2023-04-01T07:17:13;96432.03;;;10.67;63.30
2841;BME280;53423;49.224;12.074;2023-04-01T07:19:45;96441.59;;;10.47;61.44
2841;BME280;53423;49.224;12.074;2023-04-01T07:22:23;96437.91;;;10.28;63.38
2841;BME280;53423;49.224;12.074;2023-04-01T07:24:56;96436.31;;;10.34;63.41
2841;BME280;53423;49.224;12.074;2023-04-01T07:27:25;96440.13;;;10.31;62.87
2841;BME280;53423;49.224;12.074;2023-04-01T07:29:55;96444.66;;;10.57;62.99
2841;BME280;53423;49.224;12.074;2023-04-01T07:32:31;96446.47;;;10.50;61.46
2841;BME280;53423;49.224;12.074;2023-04-01T07:35:09;96438.53;;;10.37;62.45
2841;BME280;53423;49.224;12.074;2023-04-01T07:37:51;96446.34;;;10.64;62.15
2841;BME280;53423;49.224;12.074;2023-04-01T07:40:28;96445.47;;;11.04;62.14
2841;BME280;53423;49.224;12.074;2023-04-01T07:43:13;96451.72;;;10.97;61.42
2841;BME280;53423;49.224;12.074;2023-04-01T07:45:51;96448.97;;;11.44;59.78
2841;BME280;53423;49.224;12.074;2023-04-01T07:48:27;96450.81;;;12.28;57.31
2841;BME280;53423;49.224;12.074;2023-04-01T07:51:02;96444.41;;;12.75;56.16
2841;BME280;53423;49.224;12.074;2023-04-01T07:53:37;96452.94;;;12.64;55.72
2841;BME280;53423;49.224;12.074;2023-04-01T07:56:09;96451.81;;;12.34;56.41
2841;BME280;53423;49.224;12.074;2023-04-01T07:58:47;96451.19;;;12.52;54.72
2841;BME280;53423;49.224;12.074;2023-04-01T08:01:23;96454.22;;;12.42;55.58
2841;BME280;53423;49.224;12.074;2023-04-01T08:04:08;96454.44;;;12.40;56.52
2841;BME280;53423;49.224;12.074;2023-04-01T08:06:44;96442.66;;;12.63;55.55
2841;BME280;53423;49.224;12.074;2023-04-01T08:09:22;96439.41;;;12.61;55.85
2841;BME280;53423;49.224;12.074;2023-04-01T08:12:02;96449.06;;;13.30;54.76
2841;BME280;53423;49.224;12.074;2023-04-01T08:14:36;96444.00;;;13.29;52.84
2841;BME280;53423;49.224;12.074;2023-04-01T08:17:12;96450.81;;;13.67;53.54
2841;BME280;53423;49.224;12.074;2023-04-01T08:20:03;96444.00;;;13.29;52.90
2841;BME280;53423;49.224;12.074;2023-04-01T08:22:38;96442.66;;;13.44;53.21
2841;BME280;53423;49.224;12.074;2023-04-01T08:25:14;96438.28;;;13.63;52.22
2841;BME280;53423;49.224;12.074;2023-04-01T08:27:46;96440.91;;;13.63;51.81
2841;BME280;53423;49.224;12.074;2023-04-01T08:30:19;96442.31;;;12.97;52.45
2841;BME280;53423;49.224;12.074;2023-04-01T08:32:50;96432.94;;;13.14;54.33
2841;BME280;53423;49.224;12.074;2023-04-01T08:35:27;96437.69;;;13.61;53.38
2841;BME280;53423;49.224;12.074;2023-04-01T08:38:01;96437.38;;;13.20;53.93
2841;BME280;53423;49.224;12.074;2023-04-01T08:40:55;96428.91;;;13.73;51.92
2841;BME280;53423;49.224;12.074;2023-04-01T08:43:44;96423.69;;;13.36;51.67
2841;BME280;53423;49.224;12.074;2023-04-01T08:49:24;96427.59;;;12.83;53.97
2841;BME280;53423;49.224;12.074;2023-04-01T08:52:10;96426.94;;;12.43;54.36
2841;BME280;53423;49.224;12.074;2023-04-01T08:55:01;96423.84;;;12.59;55.14
2841;BME280;53423;49.224;12.074;2023-04-01T08:57:43;96411.81;;;12.83;54.33
2841;BME280;53423;49.224;12.074;2023-04-01T09:00:25;96417.13;;;12.76;53.51
2841;BME280;53423;49.224;12.074;2023-04-01T09:03:24;96419.06;;;12.87;54.92
2841;BME280;53423;49.224;12.074;2023-04-01T09:06:12;96412.63;;;12.83;53.11
2841;BME280;53423;49.224;12.074;2023-04-01T09:08:57;96409.72;;;12.98;53.44
2841;BME280;53423;49.224;12.074;2023-04-01T09:11:39;96416.59;;;13.05;52.33
2841;BME280;53423;49.224;12.074;2023-04-01T09:14:47;96420.81;;;12.62;55.08
2841;BME280;53423;49.224;12.074;2023-04-01T09:17:50;96413.66;;;12.76;53.04
2841;BME280;53423;49.224;12.074;2023-04-01T09:23:42;96416.75;;;12.66;55.26
2841;BME280;53423;49.224;12.074;2023-04-01T09:26:30;96413.00;;;12.42;55.66
2841;BME280;53423;49.224;12.074;2023-04-01T09:29:13;96418.06;;;12.37;54.56
2841;BME280;53423;49.224;12.074;2023-04-01T09:32:12;96415.06;;;12.27;55.15
2841;BME280;53423;49.224;12.074;2023-04-01T09:34:54;96407.72;;;12.49;54.98
2841;BME280;53423;49.224;12.074;2023-04-01T09:37:33;96417.59;;;12.53;54.67
2841;BME280;53423;49.224;12.074;2023-04-01T09:40:18;96413.03;;;12.80;53.41
2841;BME280;53423;49.224;12.074;2023-04-01T09:43:05;96420.00;;;12.62;53.86
2841;BME280;53423;49.224;12.074;2023-04-01T09:45:45;96415.59;;;13.00;53.10
2841;BME280;53423;49.224;12.074;2023-04-01T09:48:27;96414.16;;;13.04;52.11
2841;BME280;53423;49.224;12.074;2023-04-01T09:51:05;96415.31;;;13.14;52.59
2841;BME280;53423;49.224;12.074;2023-04-01T09:53:45;96419.59;;;13.15;53.00
2841;BME280;53423;49.224;12.074;2023-04-01T09:59:47;96417.31;;;13.19;53.69
2841;BME280;53423;49.224;12.074;2023-04-01T10:08:56;96413.59;;;12.44;53.59
2841;BME280;53423;49.224;12.074;2023-04-01T10:11:55;96407.97;;;12.21;53.35
2841;BME280;53423;49.224;12.074;2023-04-01T10:17:56;96414.72;;;11.78;55.08
2841;BME280;53423;49.224;12.074;2023-04-01T10:20:58;96409.66;;;11.90;56.24
2841;BME280;53423;49.224;12.074;2023-04-01T10:23:55;96415.28;;;12.06;55.77
2841;BME280;53423;49.224;12.074;2023-04-01T10:26:52;96416.91;;;12.14;55.13
2841;BME280;53423;49.224;12.074;2023-04-01T10:32:45;96410.78;;;12.39;55.53
2841;BME280;53423;49.224;12.074;2023-04-01T10:35:37;96409.31;;;12.50;53.46
2841;BME280;53423;49.224;12.074;2023-04-01T10:38:34;96405.81;;;12.69;53.40
2841;BME280;53423;49.224;12.074;2023-04-01T10:47:32;96409.09;;;12.58;55.09
2841;BME280;53423;49.224;12.074;2023-04-01T10:50:23;96395.94;;;12.65;53.39
2841;BME280;53423;49.224;12.074;2023-04-01T11:05:51;96390.91;;;13.63;52.42
2841;BME280;53423;49.224;12.074;2023-04-01T11:09:07;96399.94;;;13.42;52.93
2841;BME280;53423;49.224;12.074;2023-04-01T11:15:18;96402.69;;;13.29;54.08
2841;BME280;53423;49.224;12.074;2023-04-01T11:18:33;96400.88;;;13.30;53.55
2841;BME280;53423;49.224;12.074;2023-04-01T11:24:21;96393.63;;;13.19;54.82
2841;BME280;53423;49.224;12.074;2023-04-01T11:27:08;96398.50;;;12.78;55.32
2841;BME280;53423;49.224;12.074;2023-04-01T11:29:52;96408.34;;;12.95;55.74
2841;BME280;53423;49.224;12.074;2023-04-01T11:32:39;96408.13;;;12.97;55.72
2841;BME280;53423;49.224;12.074;2023-04-01T11:35:33;96402.00;;;12.59;57.82
2841;BME280;53423;49.224;12.074;2023-04-01T11:38:14;96418.13;;;12.69;58.30
2841;BME280;53423;49.224;12.074;2023-04-01T11:40:51;96416.00;;;12.97;58.58
2841;BME280;53423;49.224;12.074;2023-04-01T11:43:29;96407.31;;;13.03;57.76
2841;BME280;53423;49.224;12.074;2023-04-01T11:46:05;96415.41;;;13.32;57.43
2841;BME280;53423;49.224;12.074;2023-04-01T11:49:00;96414.56;;;13.07;58.55
2841;BME280;53423;49.224;12.074;2023-04-01T11:51:52;96408.50;;;13.07;58.82
2841;BME280;53423;49.224;12.074;2023-04-01T11:54:39;96415.03;;;12.91;58.43
2841;BME280;53423;49.224;12.074;2023-04-01T11:57:23;96420.38;;;12.65;60.27
2841;BME280;53423;49.224;12.074;2023-04-01T12:00:21;96420.75;;;12.75;60.16
2841;BME280;53423;49.224;12.074;2023-04-01T12:03:06;96422.28;;;12.52;60.15
2841;BME280;53423;49.224;12.074;2023-04-01T12:05:43;96425.66;;;12.59;59.24
2841;BME280;53423;49.224;12.074;2023-04-01T12:08:24;96420.81;;;12.56;57.38
2841;BME280;53423;49.224;12.074;2023-04-01T12:11:00;96426.81;;;12.76;59.10
2841;BME280;53423;49.224;12.074;2023-04-01T12:13:39;96423.53;;;12.87;59.52
2841;BME280;53423;49.224;12.074;2023-04-01T12:16:29;96431.03;;;12.26;60.17
2841;BME280;53423;49.224;12.074;2023-04-01T12:19:10;96430.41;;;12.24;61.96
2841;BME280;53423;49.224;12.074;2023-04-01T12:21:45;96431.41;;;12.36;60.41
2841;BME280;53423;49.224;12.074;2023-04-01T12:24:39;96425.28;;;12.48;60.93
2841;BME280;53423;49.224;12.074;2023-04-01T12:27:23;96428.16;;;12.40;60.92
2841;BME280;53423;49.224;12.074;2023-04-01T12:30:09;96430.16;;;12.52;59.03
2841;BME280;53423;49.224;12.074;2023-04-01T12:32:43;96437.09;;;12.13;60.46
2841;BME280;53423;49.224;12.074;2023-04-01T12:35:18;96434.44;;;12.39;60.92
2841;BME280;53423;49.224;12.074;2023-04-01T12:37:59;96431.78;;;12.46;61.05
2841;BME280;53423;49.224;12.074;2023-04-01T12:43:54;96433.66;;;12.19;61.48
2841;BME280;53423;49.224;12.074;2023-04-01T12:46:31;96437.06;;;12.33;61.75
2841;BME280;53423;49.224;12.074;2023-04-01T12:49:37;96425.72;;;12.39;61.80
2841;BME280;53423;49.224;12.074;2023-04-01T12:52:12;96436.63;;;12.42;62.46
2841;BME280;53423;49.224;12.074;2023-04-01T12:55:08;96441.97;;;11.97;63.77
2841;BME280;53423;49.224;12.074;2023-04-01T12:58:03;96443.56;;;12.11;63.78
2841;BME280;53423;49.224;12.074;2023-04-01T13:00:52;96439.72;;;12.20;63.87
2841;BME280;53423;49.224;12.074;2023-04-01T13:03:36;96438.16;;;11.99;62.44
2841;BME280;53423;49.224;12.074;2023-04-01T13:06:35;96437.53;;;11.91;62.63
2841;BME280;53423;49.224;12.074;2023-04-01T13:09:17;96443.78;;;12.09;61.83
2841;BME280;53423;49.224;12.074;2023-04-01T13:12:03;96446.63;;;12.08;62.51
2841;BME280;53423;49.224;12.074;2023-04-01T13:17:29;96451.41;;;12.30;61.93
2841;BME280;53423;49.224;12.074;2023-04-01T13:20:06;96453.03;;;12.38;61.05
2841;BME280;53423;49.224;12.074;2023-04-01T13:22:52;96453.03;;;12.38;62.08
2841;BME280;53423;49.224;12.074;2023-04-01T13:25:29;96456.25;;;12.97;60.14
2841;BME280;53423;49.224;12.074;2023-04-01T13:28:11;96447.09;;;12.56;62.42
2841;BME280;53423;49.224;12.074;2023-04-01T13:30:46;96447.91;;;12.63;61.64
2841;BME280;53423;49.224;12.074;2023-04-01T13:33:21;96455.66;;;12.44;61.12
2841;BME280;53423;49.224;12.074;2023-04-01T13:36:06;96453.41;;;12.41;62.05
2841;BME280;53423;49.224;12.074;2023-04-01T13:41:57;96461.34;;;12.15;62.93
2841;BME280;53423;49.224;12.074;2023-04-01T13:44:32;96463.72;;;12.30;61.23
2841;BME280;53423;49.224;12.074;2023-04-01T13:47:12;96462.34;;;12.21;62.63
2841;BME280;53423;49.224;12.074;2023-04-01T13:50:01;96460.13;;;12.31;61.58
2841;BME280;53423;49.224;12.074;2023-04-01T13:55:29;96463.97;;;12.09;62.17
2841;BME280;53423;49.224;12.074;2023-04-01T13:58:20;96466.81;;;12.07;63.32
2841;BME280;53423;49.224;12.074;2023-04-01T14:00:57;96455.69;;;12.05;63.05
2841;BME280;53423;49.224;12.074;2023-04-01T14:03:39;96457.50;;;12.11;63.17
2841;BME280;53423;49.224;12.074;2023-04-01T14:06:18;96470.81;;;12.16;63.32
2841;BME280;53423;49.224;12.074;2023-04-01T14:09:08;96471.44;;;12.12;63.06
2841;BME280;53423;49.224;12.074;2023-04-01T14:11:47;96473.66;;;12.15;63.65
2841;BME280;53423;49.224;12.074;2023-04-01T14:14:29;96473.28;;;12.18;62.80
2841;BME280;53423;49.224;12.074;2023-04-01T14:17:23;96474.50;;;11.89;64.42
2841;BME280;53423;49.224;12.074;2023-04-01T14:20:13;96466.81;;;12.07;64.59
2841;BME280;53423;49.224;12.074;2023-04-01T14:22:52;96466.81;;;12.14;64.33
2841;BME280;53423;49.224;12.074;2023-04-01T14:25:41;96476.09;;;11.71;65.42
2841;BME280;53423;49.224;12.074;2023-04-01T14:28:23;96475.28;;;11.83;66.04
2841;BME280;53423;49.224;12.074;2023-04-01T14:31:11;96472.66;;;11.83;65.38
2841;BME280;53423;49.224;12.074;2023-04-01T14:33:55;96479.94;;;11.88;64.35
2841;BME280;53423;49.224;12.074;2023-04-01T14:36:34;96468.22;;;11.71;65.23
2841;BME280;53423;49.224;12.074;2023-04-01T14:39:19;96474.28;;;11.71;65.79
2841;BME280;53423;49.224;12.074;2023-04-01T14:42:03;96477.91;;;11.77;64.92
2841;BME280;53423;49.224;12.074;2023-04-01T14:45:26;96479.91;;;11.62;66.35
2841;BME280;53423;49.224;12.074;2023-04-01T14:48:07;96485.78;;;11.83;65.95
2841;BME280;53423;49.224;12.074;2023-04-01T14:50:47;96483.97;;;11.64;65.49
2841;BME280;53423;49.224;12.074;2023-04-01T14:53:27;96485.78;;;11.83;65.45
2841;BME280;53423;49.224;12.074;2023-04-01T14:55:57;96475.91;;;11.66;65.86
2841;BME280;53423;49.224;12.074;2023-04-01T14:58:39;96479.75;;;12.02;65.59